sensor_id;sensor_type;location;lat;lon;timestamp;pressure;altitude;pressure_sealevel;temperature;humidity
34328;BME280;20588;48.840;10.064;2023-07-31T00:00:36;96566.84;;;12.53;100.00
34328;BME280;20588;48.840;10.064;2023-07-31T00:03:02;96562.91;;;12.51;100.00
34328;BME280;20588;48.840;10.064;2023-07-31T00:05:28;96562.13;;;12.50;100.00
34328;BME280;20588;48.840;10.064;2023-07-31T00:07:54;96565.72;;;12.49;100.00
34328;BME280;20588;48.840;10.064;2023-07-31T00:10:20;96562.13;;;12.50;100.00
34328;BME280;20588;48.840;10.064;2023-07-31T00:12:47;96559.75;;;12.49;100.00
34328;BME280;20588;48.840;10.064;2023-07-31T00:15:14;96553.81;;;12.48;100.00
34328;BME280;20588;48.840;10.064;2023-07-31T00:17:40;96554.59;;;12.49;100.00
34328;BME280;20588;48.840;10.064;2023-07-31T00:20:06;96557.19;;;12.49;100.00
34328;BME280;20588;48.840;10.064;2023-07-31T00:22:33;96557.19;;;12.49;100.00
34328;BME280;20588;48.840;10.064;2023-07-31T00:24:59;96553.22;;;12.46;100.00
34328;BME280;20588;48.840;10.064;2023-07-31T00:27:25;96555.25;;;12.44;100.00
34328;BME280;20588;48.840;10.064;2023-07-31T00:29:51;96555.69;;;12.41;100.00
34328;BME280;20588;48.840;10.064;2023-07-31T00:32:17;96553.56;;;12.38;100.00
34328;BME280;20588;48.840;10.064;2023-07-31T00:34:43;96550.84;;;12.33;100.00
34328;BME280;20588;48.840;10.064;2023-07-31T00:37:09;96544.34;;;12.31;100.00
34328;BME280;20588;48.840;10.064;2023-07-31T00:39:36;96550.69;;;12.28;100.00
34328;BME280;20588;48.840;10.064;2023-07-31T00:42:02;96549.34;;;12.26;100.00
34328;BME280;20588;48.840;10.064;2023-07-31T00:44:28;96546.19;;;12.24;100.00
34328;BME280;20588;48.840;10.064;2023-07-31T00:46:54;96545.66;;;12.22;100.00
34328;BME280;20588;48.840;10.064;2023-07-31T00:49:22;96538.91;;;12.21;100.00
34328;BME280;20588;48.840;10.064;2023-07-31T00:51:48;96537.56;;;12.18;100.00
34328;BME280;20588;48.840;10.064;2023-07-31T00:54:14;96546.31;;;12.17;100.00
34328;BME280;20588;48.840;10.064;2023-07-31T00:56:41;96541.38;;;12.16;100.00
34328;BME280;20588;48.840;10.064;2023-07-31T00:59:07;96545.16;;;12.13;100.00
34328;BME280;20588;48.840;10.064;2023-07-31T01:01:33;96543.00;;;12.10;100.00
34328;BME280;20588;48.840;10.064;2023-07-31T01:04:00;96544.25;;;12.08;100.00
34328;BME280;20588;48.840;10.064;2023-07-31T01:09:09;96543.41;;;11.96;100.00
34328;BME280;20588;48.840;10.064;2023-07-31T01:11:52;96543.03;;;11.92;100.00
34328;BME280;20588;48.840;10.064;2023-07-31T01:14:19;96541.91;;;11.88;100.00
34328;BME280;20588;48.840;10.064;2023-07-31T01:16:45;96537.41;;;11.84;100.00
34328;BME280;20588;48.840;10.064;2023-07-31T01:19:11;96535.84;;;11.83;100.00
34328;BME280;20588;48.840;10.064;2023-07-31T01:22:07;96530.31;;;11.79;100.00
34328;BME280;20588;48.840;10.064;2023-07-31T01:24:55;96535.47;;;11.79;100.00
34328;BME280;20588;48.840;10.064;2023-07-31T01:27:26;96540.84;;;11.78;100.00
34328;BME280;20588;48.840;10.064;2023-07-31T01:30:05;96531.19;;;11.73;100.00
34328;BME280;20588;48.840;10.064;2023-07-31T01:32:38;96537.00;;;11.69;100.00
34328;BME280;20588;48.840;10.064;2023-07-31T01:35:06;96535.06;;;11.64;100.00
34328;BME280;20588;48.840;10.064;2023-07-31T01:37:33;96533.88;;;11.60;100.00
34328;BME280;20588;48.840;10.064;2023-07-31T01:39:59;96538.69;;;11.57;100.00
34328;BME280;20588;48.840;10.064;2023-07-31T01:42:25;96524.63;;;11.53;100.00
34328;BME280;20588;48.840;10.064;2023-07-31T01:44:51;96519.69;;;11.51;100.00
34328;BME280;20588;48.840;10.064;2023-07-31T01:47:17;96519.34;;;11.48;100.00
34328;BME280;20588;48.840;10.064;2023-07-31T01:49:43;96517.44;;;11.43;100.00
34328;BME280;20588;48.840;10.064;2023-07-31T01:52:09;96514.28;;;11.41;100.00
34328;BME280;20588;48.840;10.064;2023-07-31T01:54:35;96511.31;;;11.38;100.00
34328;BME280;20588;48.840;10.064;2023-07-31T01:57:02;96509.19;;;11.35;100.00
34328;BME280;20588;48.840;10.064;2023-07-31T01:59:28;96511.19;;;11.33;100.00
34328;BME280;20588;48.840;10.064;2023-07-31T02:01:55;96510.03;;;11.29;100.00
34328;BME280;20588;48.840;10.064;2023-07-31T02:04:21;96506.09;;;11.26;100.00
34328;BME280;20588;48.840;10.064;2023-07-31T02:06:47;96505.75;;;11.23;100.00
34328;BME280;20588;48.840;10.064;2023-07-31T02:09:13;96499.81;;;11.22;100.00
34328;BME280;20588;48.840;10.064;2023-07-31T02:11:39;96505.75;;;11.23;100.00
34328;BME280;20588;48.840;10.064;2023-07-31T02:14:05;96485.34;;;11.21;100.00
34328;BME280;20588;48.840;10.064;2023-07-31T02:16:31;96491.72;;;11.19;100.00
34328;BME280;20588;48.840;10.064;2023-07-31T02:18:57;96499.88;;;11.16;100.00
34328;BME280;20588;48.840;10.064;2023-07-31T02:21:23;96496.94;;;11.12;100.00
34328;BME280;20588;48.840;10.064;2023-07-31T02:23:49;96496.59;;;11.09;100.00
34328;BME280;20588;48.840;10.064;2023-07-31T02:26:15;96492.41;;;11.08;100.00
34328;BME280;20588;48.840;10.064;2023-07-31T02:28:41;96483.13;;;11.07;100.00
34328;BME280;20588;48.840;10.064;2023-07-31T02:31:09;96477.41;;;11.05;100.00
34328;BME280;20588;48.840;10.064;2023-07-31T02:33:35;96486.34;;;11.02;100.00
34328;BME280;20588;48.840;10.064;2023-07-31T02:36:01;96491.72;;;11.01;100.00
34328;BME280;20588;48.840;10.064;2023-07-31T02:38:27;96488.56;;;10.98;100.00
34328;BME280;20588;48.840;10.064;2023-07-31T02:40:53;96485.38;;;10.96;100.00
34328;BME280;20588;48.840;10.064;2023-07-31T02:43:19;96485.59;;;10.95;100.00
34328;BME280;20588;48.840;10.064;2023-07-31T02:45:45;96487.41;;;10.94;100.00
34328;BME280;20588;48.840;10.064;2023-07-31T02:48:11;96486.63;;;10.94;100.00
34328;BME280;20588;48.840;10.064;2023-07-31T02:50:37;96492.56;;;10.94;100.00
34328;BME280;20588;48.840;10.064;2023-07-31T02:53:03;96489.78;;;10.96;100.00
34328;BME280;20588;48.840;10.064;2023-07-31T02:55:29;96483.03;;;10.95;100.00
34328;BME280;20588;48.840;10.064;2023-07-31T02:57:55;96484.03;;;10.94;100.00
34328;BME280;20588;48.840;10.064;2023-07-31T03:00:21;96485.06;;;10.93;100.00
34328;BME280;20588;48.840;10.064;2023-07-31T03:02:47;96474.97;;;10.91;100.00
34328;BME280;20588;48.840;10.064;2023-07-31T03:05:13;96474.16;;;10.91;100.00
34328;BME280;20588;48.840;10.064;2023-07-31T03:07:40;96471.81;;;10.89;100.00
34328;BME280;20588;48.840;10.064;2023-07-31T03:10:06;96471.81;;;10.89;100.00
34328;BME280;20588;48.840;10.064;2023-07-31T03:12:32;96475.38;;;10.88;100.00
34328;BME280;20588;48.840;10.064;2023-07-31T03:14:58;96468.09;;;10.85;100.00
34328;BME280;20588;48.840;10.064;2023-07-31T03:17:24;96469.28;;;10.83;100.00
34328;BME280;20588;48.840;10.064;2023-07-31T03:19:50;96466.91;;;10.81;100.00
34328;BME280;20588;48.840;10.064;2023-07-31T03:22:16;96457.47;;;10.75;100.00
34328;BME280;20588;48.840;10.064;2023-07-31T03:24:42;96459.50;;;10.73;100.00
34328;BME280;20588;48.840;10.064;2023-07-31T03:27:08;96451.97;;;10.72;100.00
34328;BME280;20588;48.840;10.064;2023-07-31T03:29:34;96454.78;;;10.70;100.00
34328;BME280;20588;48.840;10.064;2023-07-31T03:32:00;96451.41;;;10.70;100.00
34328;BME280;20588;48.840;10.064;2023-07-31T03:34:27;96452.97;;;10.71;100.00
34328;BME280;20588;48.840;10.064;2023-07-31T03:36:53;96447.06;;;10.70;100.00
34328;BME280;20588;48.840;10.064;2023-07-31T03:39:20;96451.97;;;10.72;100.00
34328;BME280;20588;48.840;10.064;2023-07-31T03:41:46;96450.19;;;10.72;100.00
34328;BME280;20588;48.840;10.064;2023-07-31T03:44:12;96445.81;;;10.73;100.00
34328;BME280;20588;48.840;10.064;2023-07-31T03:46:38;96455.13;;;10.74;100.00
34328;BME280;20588;48.840;10.064;2023-07-31T03:49:04;96461.44;;;10.78;100.00
34328;BME280;20588;48.840;10.064;2023-07-31T03:51:30;96444.19;;;10.78;100.00
34328;BME280;20588;48.840;10.064;2023-07-31T03:53:56;96448.69;;;10.83;100.00
34328;BME280;20588;48.840;10.064;2023-07-31T03:56:22;96450.84;;;10.86;100.00
34328;BME280;20588;48.840;10.064;2023-07-31T03:58:48;96453.78;;;10.89;100.00
34328;BME280;20588;48.840;10.064;2023-07-31T04:01:14;96455.13;;;10.92;100.00
34328;BME280;20588;48.840;10.064;2023-07-31T04:03:40;96461.44;;;10.96;100.00
34328;BME280;20588;48.840;10.064;2023-07-31T04:06:06;96463.59;;;10.99;100.00
34328;BME280;20588;48.840;10.064;2023-07-31T04:08:33;96467.91;;;11.05;100.00
34328;BME280;20588;48.840;10.064;2023-07-31T04:10:59;96466.66;;;11.08;100.00
34328;BME280;20588;48.840;10.064;2023-07-31T04:13:25;96468.59;;;11.12;100.00
34328;BME280;20588;48.840;10.064;2023-07-31T04:15:53;96466.19;;;11.17;100.00
34328;BME280;20588;48.840;10.064;2023-07-31T04:18:20;96470.47;;;11.23;100.00
34328;BME280;20588;48.840;10.064;2023-07-31T04:20:46;96476.13;;;11.32;100.00
34328;BME280;20588;48.840;10.064;2023-07-31T04:23:12;96459.16;;;11.42;100.00
34328;BME280;20588;48.840;10.064;2023-07-31T04:25:38;96457.84;;;11.51;100.00
34328;BME280;20588;48.840;10.064;2023-07-31T04:28:04;96457.31;;;11.67;100.00
34328;BME280;20588;48.840;10.064;2023-07-31T04:30:30;96456.25;;;11.86;100.00
34328;BME280;20588;48.840;10.064;2023-07-31T04:32:56;96449.81;;;12.07;100.00
34328;BME280;20588;48.840;10.064;2023-07-31T04:35:22;96459.72;;;12.21;100.00
34328;BME280;20588;48.840;10.064;2023-07-31T04:37:48;96447.53;;;12.40;100.00
34328;BME280;20588;48.840;10.064;2023-07-31T04:40:15;96448.00;;;12.60;100.00
34328;BME280;20588;48.840;10.064;2023-07-31T04:42:41;96451.81;;;12.81;100.00
34328;BME280;20588;48.840;10.064;2023-07-31T04:45:09;96453.28;;;13.00;100.00
34328;BME280;20588;48.840;10.064;2023-07-31T04:47:35;96449.91;;;13.11;100.00
34328;BME280;20588;48.840;10.064;2023-07-31T04:50:01;96436.75;;;13.24;100.00
34328;BME280;20588;48.840;10.064;2023-07-31T04:52:27;96433.91;;;13.37;100.00
34328;BME280;20588;48.840;10.064;2023-07-31T04:54:53;96430.81;;;13.51;100.00
34328;BME280;20588;48.840;10.064;2023-07-31T04:57:19;96442.47;;;13.65;100.00
34328;BME280;20588;48.840;10.064;2023-07-31T04:59:45;96440.63;;;13.77;100.00
34328;BME280;20588;48.840;10.064;2023-07-31T05:02:13;96445.94;;;13.99;100.00
34328;BME280;20588;48.840;10.064;2023-07-31T05:04:39;96442.97;;;14.07;100.00
34328;BME280;20588;48.840;10.064;2023-07-31T05:07:05;96446.50;;;14.17;100.00
34328;BME280;20588;48.840;10.064;2023-07-31T05:09:31;96441.75;;;14.26;100.00
34328;BME280;20588;48.840;10.064;2023-07-31T05:11:57;96439.41;;;14.41;100.00
34328;BME280;20588;48.840;10.064;2023-07-31T05:14:23;96443.78;;;14.57;100.00
34328;BME280;20588;48.840;10.064;2023-07-31T05:16:49;96445.13;;;14.76;100.00
34328;BME280;20588;48.840;10.064;2023-07-31T05:19:15;96452.63;;;14.94;100.00
34328;BME280;20588;48.840;10.064;2023-07-31T05:21:41;96447.53;;;14.99;100.00
34328;BME280;20588;48.840;10.064;2023-07-31T05:24:07;96448.50;;;15.15;100.00
34328;BME280;20588;48.840;10.064;2023-07-31T05:26:33;96449.97;;;15.27;100.00
34328;BME280;20588;48.840;10.064;2023-07-31T05:29:00;96445.13;;;15.52;100.00
34328;BME280;20588;48.840;10.064;2023-07-31T05:31:26;96440.94;;;15.73;100.00
34328;BME280;20588;48.840;10.064;2023-07-31T05:33:52;96445.84;;;15.96;100.00
34328;BME280;20588;48.840;10.064;2023-07-31T05:36:18;96438.94;;;16.06;100.00
34328;BME280;20588;48.840;10.064;2023-07-31T05:38:44;96438.56;;;16.24;100.00
34328;BME280;20588;48.840;10.064;2023-07-31T05:41:12;96437.91;;;16.39;100.00
34328;BME280;20588;48.840;10.064;2023-07-31T05:43:41;96436.09;;;16.40;100.00
34328;BME280;20588;48.840;10.064;2023-07-31T05:46:09;96437.63;;;16.67;100.00
34328;BME280;20588;48.840;10.064;2023-07-31T05:48:35;96433.28;;;16.78;100.00
34328;BME280;20588;48.840;10.064;2023-07-31T05:51:01;96442.06;;;17.13;97.30
34328;BME280;20588;48.840;10.064;2023-07-31T05:53:27;96429.00;;;17.50;94.47
34328;BME280;20588;48.840;10.064;2023-07-31T05:55:53;96427.19;;;17.55;92.94
34328;BME280;20588;48.840;10.064;2023-07-31T05:58:19;96427.47;;;17.64;92.51
34328;BME280;20588;48.840;10.064;2023-07-31T06:00:45;96438.41;;;17.61;91.96
34328;BME280;20588;48.840;10.064;2023-07-31T06:03:11;96444.41;;;17.61;93.25
34328;BME280;20588;48.840;10.064;2023-07-31T06:05:37;96438.16;;;17.67;94.16
34328;BME280;20588;48.840;10.064;2023-07-31T06:08:03;96431.94;;;17.73;94.94
34328;BME280;20588;48.840;10.064;2023-07-31T06:10:29;96426.47;;;17.80;95.97
34328;BME280;20588;48.840;10.064;2023-07-31T06:12:55;96426.22;;;17.81;94.13
34328;BME280;20588;48.840;10.064;2023-07-31T06:15:23;96422.81;;;17.71;93.58
34328;BME280;20588;48.840;10.064;2023-07-31T06:17:49;96429.56;;;17.67;94.75
34328;BME280;20588;48.840;10.064;2023-07-31T06:20:15;96418.38;;;17.71;95.30
34328;BME280;20588;48.840;10.064;2023-07-31T06:22:41;96417.63;;;17.86;94.37
34328;BME280;20588;48.840;10.064;2023-07-31T06:25:07;96409.34;;;18.09;90.39
34328;BME280;20588;48.840;10.064;2023-07-31T06:27:33;96417.16;;;18.24;91.11
34328;BME280;20588;48.840;10.064;2023-07-31T06:29:59;96418.22;;;18.48;91.24
34328;BME280;20588;48.840;10.064;2023-07-31T06:32:25;96416.53;;;19.32;88.29
34328;BME280;20588;48.840;10.064;2023-07-31T06:34:51;96406.28;;;20.33;82.09
34328;BME280;20588;48.840;10.064;2023-07-31T06:37:17;96408.69;;;20.87;77.96
34328;BME280;20588;48.840;10.064;2023-07-31T06:39:43;96400.56;;;21.12;74.72
34328;BME280;20588;48.840;10.064;2023-07-31T06:42:10;96423.22;;;21.45;70.58
34328;BME280;20588;48.840;10.064;2023-07-31T06:44:36;96417.63;;;21.94;66.14
34328;BME280;20588;48.840;10.064;2023-07-31T06:47:02;96417.53;;;22.36;63.31
34328;BME280;20588;48.840;10.064;2023-07-31T06:49:28;96423.88;;;22.48;61.42
34328;BME280;20588;48.840;10.064;2023-07-31T06:51:54;96421.28;;;22.30;59.81
34328;BME280;20588;48.840;10.064;2023-07-31T06:54:22;96423.75;;;22.08;59.31
34328;BME280;20588;48.840;10.064;2023-07-31T06:56:48;96429.31;;;22.38;59.18
34328;BME280;20588;48.840;10.064;2023-07-31T06:59:14;96425.03;;;23.20;56.50
34328;BME280;20588;48.840;10.064;2023-07-31T07:01:40;96424.66;;;24.03;53.04
34328;BME280;20588;48.840;10.064;2023-07-31T07:04:06;96430.19;;;24.81;50.46
34328;BME280;20588;48.840;10.064;2023-07-31T07:06:32;96421.72;;;25.32;48.96
34328;BME280;20588;48.840;10.064;2023-07-31T07:08:58;96424.28;;;25.54;47.80
34328;BME280;20588;48.840;10.064;2023-07-31T07:11:24;96426.97;;;25.23;47.74
34328;BME280;20588;48.840;10.064;2023-07-31T07:13:50;96426.09;;;24.97;48.58
34328;BME280;20588;48.840;10.064;2023-07-31T07:16:16;96422.97;;;24.42;49.39
34328;BME280;20588;48.840;10.064;2023-07-31T07:18:42;96414.38;;;24.15;50.58
34328;BME280;20588;48.840;10.064;2023-07-31T07:21:08;96421.47;;;23.79;50.57
34328;BME280;20588;48.840;10.064;2023-07-31T07:23:34;96420.06;;;23.59;52.10
34328;BME280;20588;48.840;10.064;2023-07-31T07:26:00;96408.44;;;23.74;51.34
34328;BME280;20588;48.840;10.064;2023-07-31T07:28:26;96403.75;;;24.20;52.28
34328;BME280;20588;48.840;10.064;2023-07-31T07:30:54;96407.78;;;24.92;49.57
34328;BME280;20588;48.840;10.064;2023-07-31T07:33:20;96397.63;;;25.16;49.20
34328;BME280;20588;48.840;10.064;2023-07-31T07:35:46;96393.75;;;25.05;48.30
34328;BME280;20588;48.840;10.064;2023-07-31T07:38:14;96410.91;;;24.72;47.51
34328;BME280;20588;48.840;10.064;2023-07-31T07:40:41;96407.22;;;24.51;48.31
34328;BME280;20588;48.840;10.064;2023-07-31T07:43:07;96411.38;;;24.96;48.17
34328;BME280;20588;48.840;10.064;2023-07-31T07:45:33;96405.25;;;25.74;47.36
34328;BME280;20588;48.840;10.064;2023-07-31T07:47:59;96414.31;;;25.98;43.81
34328;BME280;20588;48.840;10.064;2023-07-31T07:50:26;96414.16;;;26.12;44.06
34328;BME280;20588;48.840;10.064;2023-07-31T07:52:52;96413.53;;;26.32;42.64
34328;BME280;20588;48.840;10.064;2023-07-31T07:55:18;96412.44;;;26.16;43.29
34328;BME280;20588;48.840;10.064;2023-07-31T07:57:44;96406.34;;;26.49;43.20
34328;BME280;20588;48.840;10.064;2023-07-31T08:00:12;96400.59;;;26.73;42.41
34328;BME280;20588;48.840;10.064;2023-07-31T08:02:38;96399.56;;;27.03;42.02
34328;BME280;20588;48.840;10.064;2023-07-31T08:05:04;96399.03;;;27.10;42.28
34328;BME280;20588;48.840;10.064;2023-07-31T08:07:30;96408.06;;;27.17;41.90
34328;BME280;20588;48.840;10.064;2023-07-31T08:09:56;96396.00;;;27.37;41.69
34328;BME280;20588;48.840;10.064;2023-07-31T08:12:22;96399.91;;;27.60;41.02
34328;BME280;20588;48.840;10.064;2023-07-31T08:14:48;96399.16;;;27.59;40.80
34328;BME280;20588;48.840;10.064;2023-07-31T08:17:15;96396.22;;;27.52;41.97
34328;BME280;20588;48.840;10.064;2023-07-31T08:19:41;96393.31;;;27.66;42.07
34328;BME280;20588;48.840;10.064;2023-07-31T08:22:07;96408.22;;;27.99;40.76
34328;BME280;20588;48.840;10.064;2023-07-31T08:24:33;96389.09;;;28.35;39.93
34328;BME280;20588;48.840;10.064;2023-07-31T08:26:59;96390.06;;;28.63;39.06
34328;BME280;20588;48.840;10.064;2023-07-31T08:29:25;96391.28;;;29.34;39.65
34328;BME280;20588;48.840;10.064;2023-07-31T08:31:51;96377.03;;;30.30;37.16
34328;BME280;20588;48.840;10.064;2023-07-31T08:34:17;96364.41;;;30.55;36.49
34328;BME280;20588;48.840;10.064;2023-07-31T08:36:43;96365.72;;;30.06;37.15
34328;BME280;20588;48.840;10.064;2023-07-31T08:39:09;96368.59;;;30.01;38.11
34328;BME280;20588;48.840;10.064;2023-07-31T08:41:39;96372.63;;;30.50;37.71
34328;BME280;20588;48.840;10.064;2023-07-31T08:44:06;96366.94;;;30.79;36.28
34328;BME280;20588;48.840;10.064;2023-07-31T08:46:33;96381.19;;;31.33;35.77
34328;BME280;20588;48.840;10.064;2023-07-31T08:49:00;96365.84;;;31.96;35.65
34328;BME280;20588;48.840;10.064;2023-07-31T08:51:27;96358.28;;;32.36;34.73
34328;BME280;20588;48.840;10.064;2023-07-31T08:53:53;96358.19;;;32.74;33.58
34328;BME280;20588;48.840;10.064;2023-07-31T08:56:20;96350.34;;;33.03;33.56
34328;BME280;20588;48.840;10.064;2023-07-31T08:58:47;96349.88;;;33.24;32.78
34328;BME280;20588;48.840;10.064;2023-07-31T09:01:13;96341.00;;;33.17;33.35
34328;BME280;20588;48.840;10.064;2023-07-31T09:03:40;96352.44;;;33.43;33.15
34328;BME280;20588;48.840;10.064;2023-07-31T09:06:07;96339.88;;;33.73;32.51
34328;BME280;20588;48.840;10.064;2023-07-31T09:08:34;96333.66;;;33.62;32.00
34328;BME280;20588;48.840;10.064;2023-07-31T09:11:02;96342.78;;;33.61;31.92
34328;BME280;20588;48.840;10.064;2023-07-31T09:13:30;96344.44;;;33.17;32.50
34328;BME280;20588;48.840;10.064;2023-07-31T09:15:57;96333.72;;;32.91;33.18
34328;BME280;20588;48.840;10.064;2023-07-31T09:18:23;96337.19;;;33.18;32.53
34328;BME280;20588;48.840;10.064;2023-07-31T09:21:05;96334.22;;;33.23;33.01
34328;BME280;20588;48.840;10.064;2023-07-31T09:23:42;96346.66;;;33.38;32.54
34328;BME280;20588;48.840;10.064;2023-07-31T09:26:08;96358.84;;;33.65;31.75
34328;BME280;20588;48.840;10.064;2023-07-31T09:28:35;96350.13;;;33.42;31.30
34328;BME280;20588;48.840;10.064;2023-07-31T09:31:01;96350.41;;;33.59;32.30
34328;BME280;20588;48.840;10.064;2023-07-31T09:33:27;96336.75;;;33.68;31.95
34328;BME280;20588;48.840;10.064;2023-07-31T09:35:53;96328.44;;;33.73;31.44
34328;BME280;20588;48.840;10.064;2023-07-31T09:38:19;96331.31;;;34.23;31.12
34328;BME280;20588;48.840;10.064;2023-07-31T09:40:49;96324.16;;;34.31;30.43
34328;BME280;20588;48.840;10.064;2023-07-31T09:43:20;96325.72;;;34.35;31.07
34328;BME280;20588;48.840;10.064;2023-07-31T09:45:47;96320.59;;;34.97;29.87
34328;BME280;20588;48.840;10.064;2023-07-31T09:48:15;96321.06;;;35.13;30.05
34328;BME280;20588;48.840;10.064;2023-07-31T09:50:48;96323.56;;;35.39;30.23
34328;BME280;20588;48.840;10.064;2023-07-31T09:53:15;96323.69;;;35.56;29.48
34328;BME280;20588;48.840;10.064;2023-07-31T09:55:42;96314.13;;;35.66;29.50
34328;BME280;20588;48.840;10.064;2023-07-31T09:58:11;96321.38;;;35.55;29.99
34328;BME280;20588;48.840;10.064;2023-07-31T10:00:37;96314.81;;;35.45;30.25
34328;BME280;20588;48.840;10.064;2023-07-31T10:03:09;96302.53;;;35.41;28.99
34328;BME280;20588;48.840;10.064;2023-07-31T10:05:42;96302.41;;;35.20;28.81
34328;BME280;20588;48.840;10.064;2023-07-31T10:08:10;96301.09;;;34.52;30.38
34328;BME280;20588;48.840;10.064;2023-07-31T10:10:42;96281.53;;;34.08;29.69
34328;BME280;20588;48.840;10.064;2023-07-31T10:13:09;96290.16;;;33.95;30.16
34328;BME280;20588;48.840;10.064;2023-07-31T10:15:37;96287.03;;;33.56;30.61
34328;BME280;20588;48.840;10.064;2023-07-31T10:18:03;96287.88;;;32.85;31.83
34328;BME280;20588;48.840;10.064;2023-07-31T10:20:31;96280.72;;;32.67;32.52
34328;BME280;20588;48.840;10.064;2023-07-31T10:22:58;96281.56;;;32.07;32.35
34328;BME280;20588;48.840;10.064;2023-07-31T10:25:29;96273.22;;;32.08;33.21
34328;BME280;20588;48.840;10.064;2023-07-31T10:27:57;96272.56;;;32.56;33.68
34328;BME280;20588;48.840;10.064;2023-07-31T10:30:27;96269.78;;;32.98;33.33
34328;BME280;20588;48.840;10.064;2023-07-31T10:32:55;96270.94;;;32.97;32.52
34328;BME280;20588;48.840;10.064;2023-07-31T10:35:23;96258.19;;;32.64;32.99
34328;BME280;20588;48.840;10.064;2023-07-31T10:37:49;96260.56;;;32.24;32.49
34328;BME280;20588;48.840;10.064;2023-07-31T10:40:23;96248.44;;;31.47;33.11
34328;BME280;20588;48.840;10.064;2023-07-31T10:42:56;96250.44;;;31.54;33.23
34328;BME280;20588;48.840;10.064;2023-07-31T10:45:37;96245.97;;;31.96;32.70
34328;BME280;20588;48.840;10.064;2023-07-31T10:48:14;96242.44;;;32.33;32.48
34328;BME280;20588;48.840;10.064;2023-07-31T10:50:56;96239.50;;;31.97;33.05
34328;BME280;20588;48.840;10.064;2023-07-31T10:53:25;96232.66;;;32.63;32.59
34328;BME280;20588;48.840;10.064;2023-07-31T10:55:52;96223.09;;;33.11;32.87
34328;BME280;20588;48.840;10.064;2023-07-31T10:58:20;96211.94;;;33.65;31.98
34328;BME280;20588;48.840;10.064;2023-07-31T11:00:46;96222.63;;;33.65;30.96
34328;BME280;20588;48.840;10.064;2023-07-31T11:03:19;96236.50;;;34.10;31.31
34328;BME280;20588;48.840;10.064;2023-07-31T11:08:29;96216.81;;;34.29;31.12
34328;BME280;20588;48.840;10.064;2023-07-31T11:13:31;96219.56;;;33.96;31.20
34328;BME280;20588;48.840;10.064;2023-07-31T11:15:58;96217.53;;;33.53;30.72
34328;BME280;20588;48.840;10.064;2023-07-31T11:18:26;96220.00;;;32.83;30.98
34328;BME280;20588;48.840;10.064;2023-07-31T11:20:53;96223.81;;;31.73;32.65
34328;BME280;20588;48.840;10.064;2023-07-31T11:23:20;96227.06;;;31.28;33.97
34328;BME280;20588;48.840;10.064;2023-07-31T11:25:46;96230.91;;;31.84;34.28
34328;BME280;20588;48.840;10.064;2023-07-31T11:28:14;96223.66;;;32.26;32.39
34328;BME280;20588;48.840;10.064;2023-07-31T11:30:42;96225.31;;;32.12;31.95
34328;BME280;20588;48.840;10.064;2023-07-31T11:33:10;96222.13;;;32.25;32.03
34328;BME280;20588;48.840;10.064;2023-07-31T11:35:47;96236.00;;;31.74;33.32
34328;BME280;20588;48.840;10.064;2023-07-31T11:38:34;96240.03;;;31.83;33.82
34328;BME280;20588;48.840;10.064;2023-07-31T11:41:02;96232.94;;;31.91;33.09
34328;BME280;20588;48.840;10.064;2023-07-31T11:43:29;96224.75;;;32.44;32.65
34328;BME280;20588;48.840;10.064;2023-07-31T11:45:56;96220.53;;;32.92;32.38
34328;BME280;20588;48.840;10.064;2023-07-31T11:48:28;96227.00;;;32.42;31.99
34328;BME280;20588;48.840;10.064;2023-07-31T11:50:58;96225.13;;;32.01;33.13
34328;BME280;20588;48.840;10.064;2023-07-31T11:53:42;96217.88;;;31.79;33.39
34328;BME280;20588;48.840;10.064;2023-07-31T11:56:10;96202.75;;;31.45;33.61
34328;BME280;20588;48.840;10.064;2023-07-31T11:58:38;96211.69;;;31.18;34.48
34328;BME280;20588;48.840;10.064;2023-07-31T12:01:05;96208.09;;;31.10;34.26
34328;BME280;20588;48.840;10.064;2023-07-31T12:03:33;96206.13;;;30.88;35.02
34328;BME280;20588;48.840;10.064;2023-07-31T12:06:00;96201.25;;;31.09;34.38
34328;BME280;20588;48.840;10.064;2023-07-31T12:08:26;96194.06;;;31.67;34.46
34328;BME280;20588;48.840;10.064;2023-07-31T12:10:53;96199.16;;;31.18;34.23
34328;BME280;20588;48.840;10.064;2023-07-31T12:13:25;96203.88;;;30.75;34.57
34328;BME280;20588;48.840;10.064;2023-07-31T12:16:00;96200.22;;;30.64;35.61
34328;BME280;20588;48.840;10.064;2023-07-31T12:18:33;96203.09;;;31.43;36.67
34328;BME280;20588;48.840;10.064;2023-07-31T12:21:00;96188.91;;;32.19;34.63
34328;BME280;20588;48.840;10.064;2023-07-31T12:23:27;96176.91;;;32.81;34.00
34328;BME280;20588;48.840;10.064;2023-07-31T12:26:23;96174.72;;;33.16;33.42
34328;BME280;20588;48.840;10.064;2023-07-31T12:28:59;96171.03;;;32.68;33.67
34328;BME280;20588;48.840;10.064;2023-07-31T12:31:28;96172.91;;;32.19;33.46
34328;BME280;20588;48.840;10.064;2023-07-31T12:33:56;96165.00;;;31.81;33.45
34328;BME280;20588;48.840;10.064;2023-07-31T12:36:23;96159.28;;;31.22;34.92
34328;BME280;20588;48.840;10.064;2023-07-31T12:38:51;96152.75;;;30.81;35.14
34328;BME280;20588;48.840;10.064;2023-07-31T12:41:17;96147.00;;;30.14;35.79
34328;BME280;20588;48.840;10.064;2023-07-31T12:43:45;96142.31;;;29.21;36.63
34328;BME280;20588;48.840;10.064;2023-07-31T12:46:11;96147.72;;;28.73;37.73
34328;BME280;20588;48.840;10.064;2023-07-31T12:48:40;96130.28;;;28.72;38.81
34328;BME280;20588;48.840;10.064;2023-07-31T12:51:06;96119.34;;;28.73;38.87
34328;BME280;20588;48.840;10.064;2023-07-31T12:53:33;96119.50;;;28.53;38.20